sensor_id;sensor_type;location;lat;lon;timestamp;noise_LAeq;noise_LA_min;noise_LA_max;noise_LA01;noise_LA95
4048;Laerm;2038;51.728;6.674;2022-12-07T00:01:30;45.19;43.81;47.06;;
4048;Laerm;2038;51.728;6.674;2022-12-07T00:03:59;45.25;43.90;47.52;;
4048;Laerm;2038;51.728;6.674;2022-12-07T00:06:37;45.38;43.99;47.59;;
4048;Laerm;2038;51.728;6.674;2022-12-07T00:09:11;45.39;43.77;47.40;;
4048;Laerm;2038;51.728;6.674;2022-12-07T00:11:38;45.37;43.94;47.22;;
4048;Laerm;2038;51.728;6.674;2022-12-07T00:14:10;45.32;43.81;47.54;;
4048;Laerm;2038;51.728;6.674;2022-12-07T00:16:37;45.25;43.72;47.18;;
4048;Laerm;2038;51.728;6.674;2022-12-07T00:19:04;45.51;43.81;51.77;;
4048;Laerm;2038;51.728;6.674;2022-12-07T00:21:34;45.29;43.81;47.08;;
4048;Laerm;2038;51.728;6.674;2022-12-07T00:24:03;45.19;43.54;47.26;;
4048;Laerm;2038;51.728;6.674;2022-12-07T00:26:33;45.20;43.58;47.10;;
4048;Laerm;2038;51.728;6.674;2022-12-07T00:31:32;44.97;43.39;46.91;;
4048;Laerm;2038;51.728;6.674;2022-12-07T00:34:01;44.99;43.29;52.59;;
4048;Laerm;2038;51.728;6.674;2022-12-07T00:36:27;44.62;43.29;46.59;;
4048;Laerm;2038;51.728;6.674;2022-12-07T00:38:57;44.51;42.98;46.40;;
4048;Laerm;2038;51.728;6.674;2022-12-07T00:41:26;44.46;43.09;46.05;;
4048;Laerm;2038;51.728;6.674;2022-12-07T00:43:54;44.50;43.09;46.13;;
4048;Laerm;2038;51.728;6.674;2022-12-07T00:46:21;44.68;42.88;49.56;;
4048;Laerm;2038;51.728;6.674;2022-12-07T00:48:49;44.48;43.14;45.72;;
4048;Laerm;2038;51.728;6.674;2022-12-07T00:51:18;44.94;43.09;55.59;;
4048;Laerm;2038;51.728;6.674;2022-12-07T00:53:45;44.46;42.82;45.86;;
4048;Laerm;2038;51.728;6.674;2022-12-07T00:56:24;44.47;42.98;46.02;;
4048;Laerm;2038;51.728;6.674;2022-12-07T00:59:00;44.44;43.14;45.91;;
4048;Laerm;2038;51.728;6.674;2022-12-07T01:01:29;44.43;43.19;45.77;;
4048;Laerm;2038;51.728;6.674;2022-12-07T01:03:55;44.49;43.09;46.15;;
4048;Laerm;2038;51.728;6.674;2022-12-07T01:06:24;44.51;42.98;45.97;;
4048;Laerm;2038;51.728;6.674;2022-12-07T01:08:51;46.38;43.28;59.71;;
4048;Laerm;2038;51.728;6.674;2022-12-07T01:11:22;44.51;42.88;45.66;;
4048;Laerm;2038;51.728;6.674;2022-12-07T01:13:54;44.50;43.14;46.02;;
4048;Laerm;2038;51.728;6.674;2022-12-07T01:16:23;44.55;42.65;46.20;;
4048;Laerm;2038;51.728;6.674;2022-12-07T01:18:53;45.47;43.14;56.72;;
4048;Laerm;2038;51.728;6.674;2022-12-07T01:21:29;44.63;43.14;46.30;;
4048;Laerm;2038;51.728;6.674;2022-12-07T01:23:58;44.63;43.14;45.97;;
4048;Laerm;2038;51.728;6.674;2022-12-07T01:26:28;44.69;42.98;52.13;;
4048;Laerm;2038;51.728;6.674;2022-12-07T01:28:54;44.68;42.98;55.17;;
4048;Laerm;2038;51.728;6.674;2022-12-07T01:31:24;44.45;42.88;46.02;;
4048;Laerm;2038;51.728;6.674;2022-12-07T01:33:57;44.39;42.93;45.80;;
4048;Laerm;2038;51.728;6.674;2022-12-07T01:36:30;44.33;42.88;45.66;;
4048;Laerm;2038;51.728;6.674;2022-12-07T01:39:01;44.35;42.93;45.97;;
4048;Laerm;2038;51.728;6.674;2022-12-07T01:41:34;44.25;42.71;45.51;;
4048;Laerm;2038;51.728;6.674;2022-12-07T01:46:55;44.00;42.47;45.45;;
4048;Laerm;2038;51.728;6.674;2022-12-07T01:49:33;43.95;42.35;45.23;;
4048;Laerm;2038;51.728;6.674;2022-12-07T01:52:15;43.94;42.35;45.17;;
4048;Laerm;2038;51.728;6.674;2022-12-07T01:54:45;43.95;42.16;45.17;;
4048;Laerm;2038;51.728;6.674;2022-12-07T01:57:16;43.95;42.09;45.14;;
4048;Laerm;2038;51.728;6.674;2022-12-07T01:59:45;43.93;42.47;45.17;;
4048;Laerm;2038;51.728;6.674;2022-12-07T02:02:22;43.86;41.96;45.01;;
4048;Laerm;2038;51.728;6.674;2022-12-07T02:04:55;44.06;41.89;50.69;;
4048;Laerm;2038;51.728;6.674;2022-12-07T02:07:25;43.69;41.96;45.04;;
4048;Laerm;2038;51.728;6.674;2022-12-07T02:09:52;43.91;42.41;45.17;;
4048;Laerm;2038;51.728;6.674;2022-12-07T02:12:20;46.33;42.65;59.98;;
4048;Laerm;2038;51.728;6.674;2022-12-07T02:14:48;43.94;42.58;45.11;;
4048;Laerm;2038;51.728;6.674;2022-12-07T02:18:01;44.10;42.35;45.57;;
4048;Laerm;2038;51.728;6.674;2022-12-07T02:20:49;44.23;42.65;45.63;;
4048;Laerm;2038;51.728;6.674;2022-12-07T02:27:01;44.05;42.22;45.36;;
4048;Laerm;2038;51.728;6.674;2022-12-07T02:29:45;44.70;42.53;55.20;;
4048;Laerm;2038;51.728;6.674;2022-12-07T02:32:23;44.15;42.16;45.30;;
4048;Laerm;2038;51.728;6.674;2022-12-07T02:35:06;44.35;42.65;51.13;;
4048;Laerm;2038;51.728;6.674;2022-12-07T02:37:38;44.68;42.76;52.84;;
4048;Laerm;2038;51.728;6.674;2022-12-07T02:40:24;44.45;42.93;51.80;;
4048;Laerm;2038;51.728;6.674;2022-12-07T02:43:00;44.34;42.82;46.08;;
4048;Laerm;2038;51.728;6.674;2022-12-07T02:45:31;44.34;42.65;45.66;;
4048;Laerm;2038;51.728;6.674;2022-12-07T02:48:00;44.21;42.76;45.60;;
4048;Laerm;2038;51.728;6.674;2022-12-07T02:50:28;44.06;42.53;45.33;;
4048;Laerm;2038;51.728;6.674;2022-12-07T02:52:54;44.05;42.41;45.27;;
4048;Laerm;2038;51.728;6.674;2022-12-07T02:55:28;44.11;42.71;45.34;;
4048;Laerm;2038;51.728;6.674;2022-12-07T02:58:29;44.12;42.53;45.36;;
4048;Laerm;2038;51.728;6.674;2022-12-07T03:01:42;44.76;42.59;53.96;;
4048;Laerm;2038;51.728;6.674;2022-12-07T03:04:35;44.10;42.47;45.39;;
4048;Laerm;2038;51.728;6.674;2022-12-07T03:10:08;44.25;42.65;45.72;;
4048;Laerm;2038;51.728;6.674;2022-12-07T03:13:07;44.45;42.76;52.05;;
4048;Laerm;2038;51.728;6.674;2022-12-07T03:18:22;44.44;42.65;48.70;;
4048;Laerm;2038;51.728;6.674;2022-12-07T03:20:53;45.01;42.59;54.66;;
4048;Laerm;2038;51.728;6.674;2022-12-07T03:23:23;47.59;43.24;60.48;;
4048;Laerm;2038;51.728;6.674;2022-12-07T03:25:58;44.58;42.76;53.71;;
4048;Laerm;2038;51.728;6.674;2022-12-07T03:28:33;44.14;42.47;45.42;;
4048;Laerm;2038;51.728;6.674;2022-12-07T03:31:21;44.52;42.41;52.79;;
4048;Laerm;2038;51.728;6.674;2022-12-07T03:34:21;44.16;42.53;45.33;;
4048;Laerm;2038;51.728;6.674;2022-12-07T03:37:09;44.90;42.59;55.51;;
4048;Laerm;2038;51.728;6.674;2022-12-07T03:40:03;44.33;42.82;45.63;;
4048;Laerm;2038;51.728;6.674;2022-12-07T03:42:33;44.77;42.85;56.16;;
4048;Laerm;2038;51.728;6.674;2022-12-07T03:45:02;44.75;42.88;54.16;;
4048;Laerm;2038;51.728;6.674;2022-12-07T03:47:49;44.84;42.88;54.49;;
4048;Laerm;2038;51.728;6.674;2022-12-07T03:50:32;45.33;42.98;54.28;;
4048;Laerm;2038;51.728;6.674;2022-12-07T03:53:27;44.61;43.09;51.17;;
4048;Laerm;2038;51.728;6.674;2022-12-07T03:55:57;44.80;42.98;54.02;;
4048;Laerm;2038;51.728;6.674;2022-12-07T03:58:25;46.12;42.93;58.22;;
4048;Laerm;2038;51.728;6.674;2022-12-07T04:00:52;45.93;42.93;56.63;;
4048;Laerm;2038;51.728;6.674;2022-12-07T04:03:18;45.20;43.14;55.30;;
4048;Laerm;2038;51.728;6.674;2022-12-07T04:05:45;45.08;42.76;55.48;;
4048;Laerm;2038;51.728;6.674;2022-12-07T04:08:11;44.38;42.98;45.83;;
4048;Laerm;2038;51.728;6.674;2022-12-07T04:10:38;44.89;42.88;53.10;;
4048;Laerm;2038;51.728;6.674;2022-12-07T04:13:04;46.60;43.19;56.71;;
4048;Laerm;2038;51.728;6.674;2022-12-07T04:15:30;44.62;43.14;46.43;;
4048;Laerm;2038;51.728;6.674;2022-12-07T04:17:56;45.64;43.09;59.55;;
4048;Laerm;2038;51.728;6.674;2022-12-07T04:20:23;46.33;43.29;55.68;;
4048;Laerm;2038;51.728;6.674;2022-12-07T04:22:50;44.77;43.29;46.55;;
4048;Laerm;2038;51.728;6.674;2022-12-07T04:25:16;44.98;43.04;50.48;;
4048;Laerm;2038;51.728;6.674;2022-12-07T04:27:42;45.01;42.98;52.42;;
4048;Laerm;2038;51.728;6.674;2022-12-07T04:30:09;46.17;42.65;58.83;;
4048;Laerm;2038;51.728;6.674;2022-12-07T04:32:35;45.52;43.14;54.81;;
4048;Laerm;2038;51.728;6.674;2022-12-07T04:35:02;47.12;43.49;63.05;;
4048;Laerm;2038;51.728;6.674;2022-12-07T04:37:28;47.78;43.49;62.32;;
4048;Laerm;2038;51.728;6.674;2022-12-07T04:39:54;44.83;43.34;46.43;;
4048;Laerm;2038;51.728;6.674;2022-12-07T04:42:21;47.52;43.54;61.76;;
4048;Laerm;2038;51.728;6.674;2022-12-07T04:44:47;45.60;43.60;52.84;;
4048;Laerm;2038;51.728;6.674;2022-12-07T04:47:13;46.34;44.03;53.92;;
4048;Laerm;2038;51.728;6.674;2022-12-07T04:49:39;46.37;43.89;53.60;;
4048;Laerm;2038;51.728;6.674;2022-12-07T04:52:05;46.87;44.27;55.35;;
4048;Laerm;2038;51.728;6.674;2022-12-07T04:54:32;46.63;43.90;54.66;;
4048;Laerm;2038;51.728;6.674;2022-12-07T04:56:58;46.19;43.72;53.91;;
4048;Laerm;2038;51.728;6.674;2022-12-07T04:59:25;46.82;43.81;56.97;;
4048;Laerm;2038;51.728;6.674;2022-12-07T05:01:51;46.82;43.77;58.93;;
4048;Laerm;2038;51.728;6.674;2022-12-07T05:04:17;45.41;43.63;49.96;;
4048;Laerm;2038;51.728;6.674;2022-12-07T05:06:44;45.93;43.63;54.87;;
4048;Laerm;2038;51.728;6.674;2022-12-07T05:09:10;46.82;43.72;56.03;;
4048;Laerm;2038;51.728;6.674;2022-12-07T05:11:37;46.89;43.85;56.05;;
4048;Laerm;2038;51.728;6.674;2022-12-07T05:14:19;45.73;43.44;54.27;;
4048;Laerm;2038;51.728;6.674;2022-12-07T05:16:49;46.41;43.77;53.99;;
4048;Laerm;2038;51.728;6.674;2022-12-07T05:19:17;46.66;43.81;56.88;;
4048;Laerm;2038;51.728;6.674;2022-12-07T05:21:44;47.72;43.68;56.79;;
4048;Laerm;2038;51.728;6.674;2022-12-07T05:24:13;47.41;43.58;58.70;;
4048;Laerm;2038;51.728;6.674;2022-12-07T05:26:40;46.20;43.04;56.22;;
4048;Laerm;2038;51.728;6.674;2022-12-07T05:29:07;46.02;42.88;55.32;;
4048;Laerm;2038;51.728;6.674;2022-12-07T05:31:33;45.88;43.09;55.28;;
4048;Laerm;2038;51.728;6.674;2022-12-07T05:34:01;45.50;43.14;51.88;;
4048;Laerm;2038;51.728;6.674;2022-12-07T05:36:27;46.82;43.44;54.75;;
4048;Laerm;2038;51.728;6.674;2022-12-07T05:38:54;49.03;43.72;65.85;;
4048;Laerm;2038;51.728;6.674;2022-12-07T05:41:20;49.33;44.03;62.18;;
4048;Laerm;2038;51.728;6.674;2022-12-07T05:44:05;47.17;43.49;55.47;;
4048;Laerm;2038;51.728;6.674;2022-12-07T05:46:32;46.68;43.63;55.06;;
4048;Laerm;2038;51.728;6.674;2022-12-07T05:48:59;47.93;43.58;59.77;;
4048;Laerm;2038;51.728;6.674;2022-12-07T05:51:26;47.22;43.49;55.51;;
4048;Laerm;2038;51.728;6.674;2022-12-07T05:53:52;49.07;43.49;59.47;;
4048;Laerm;2038;51.728;6.674;2022-12-07T05:56:18;48.01;43.86;58.15;;
4048;Laerm;2038;51.728;6.674;2022-12-07T05:58:44;46.72;43.81;56.77;;
4048;Laerm;2038;51.728;6.674;2022-12-07T06:01:29;47.11;43.81;56.84;;
4048;Laerm;2038;51.728;6.674;2022-12-07T06:03:56;46.50;43.58;56.05;;
4048;Laerm;2038;51.728;6.674;2022-12-07T06:06:22;48.33;43.44;59.90;;
4048;Laerm;2038;51.728;6.674;2022-12-07T06:08:50;48.08;42.98;61.00;;
4048;Laerm;2038;51.728;6.674;2022-12-07T06:11:17;48.01;42.82;58.87;;
4048;Laerm;2038;51.728;6.674;2022-12-07T06:14:02;46.81;42.76;56.62;;
4048;Laerm;2038;51.728;6.674;2022-12-07T06:16:28;47.41;42.93;56.39;;
4048;Laerm;2038;51.728;6.674;2022-12-07T06:18:54;48.15;42.22;59.28;;
4048;Laerm;2038;51.728;6.674;2022-12-07T06:21:21;45.41;43.04;53.54;;
4048;Laerm;2038;51.728;6.674;2022-12-07T06:23:47;46.70;43.34;54.72;;
4048;Laerm;2038;51.728;6.674;2022-12-07T06:26:14;47.18;43.09;57.28;;
4048;Laerm;2038;51.728;6.674;2022-12-07T06:28:40;46.16;42.53;53.26;;
4048;Laerm;2038;51.728;6.674;2022-12-07T06:31:07;47.21;42.71;66.28;;
4048;Laerm;2038;51.728;6.674;2022-12-07T06:33:33;48.02;42.76;59.26;;
4048;Laerm;2038;51.728;6.674;2022-12-07T06:35:59;46.98;42.82;56.07;;
4048;Laerm;2038;51.728;6.674;2022-12-07T06:38:26;47.93;43.39;57.74;;
4048;Laerm;2038;51.728;6.674;2022-12-07T06:40:52;49.41;43.09;62.93;;
4048;Laerm;2038;51.728;6.674;2022-12-07T06:43:18;47.06;43.34;55.96;;
4048;Laerm;2038;51.728;6.674;2022-12-07T06:45:44;49.19;43.58;58.72;;
4048;Laerm;2038;51.728;6.674;2022-12-07T06:48:11;47.12;43.39;56.18;;
4048;Laerm;2038;51.728;6.674;2022-12-07T06:50:37;47.93;43.49;56.11;;
4048;Laerm;2038;51.728;6.674;2022-12-07T06:53:03;47.77;43.86;56.14;;
4048;Laerm;2038;51.728;6.674;2022-12-07T06:55:29;48.17;43.72;57.88;;
4048;Laerm;2038;51.728;6.674;2022-12-07T06:57:55;47.59;43.86;55.11;;
4048;Laerm;2038;51.728;6.674;2022-12-07T07:00:22;48.93;43.94;61.73;;
4048;Laerm;2038;51.728;6.674;2022-12-07T07:02:48;48.60;44.15;59.79;;
4048;Laerm;2038;51.728;6.674;2022-12-07T07:05:14;47.51;43.86;61.86;;
4048;Laerm;2038;51.728;6.674;2022-12-07T07:07:42;46.71;43.94;55.39;;
4048;Laerm;2038;51.728;6.674;2022-12-07T07:10:09;47.66;43.72;58.20;;
4048;Laerm;2038;51.728;6.674;2022-12-07T07:12:35;47.58;43.54;57.86;;
4048;Laerm;2038;51.728;6.674;2022-12-07T07:15:01;47.69;43.81;59.24;;
4048;Laerm;2038;51.728;6.674;2022-12-07T07:17:27;46.20;43.58;53.74;;
4048;Laerm;2038;51.728;6.674;2022-12-07T07:19:53;47.86;43.58;57.84;;
4048;Laerm;2038;51.728;6.674;2022-12-07T07:22:20;46.32;43.86;54.97;;
4048;Laerm;2038;51.728;6.674;2022-12-07T07:24:46;47.22;43.68;59.31;;
4048;Laerm;2038;51.728;6.674;2022-12-07T07:27:12;46.39;43.63;55.43;;
4048;Laerm;2038;51.728;6.674;2022-12-07T07:29:38;47.47;43.58;56.09;;
4048;Laerm;2038;51.728;6.674;2022-12-07T07:32:06;47.61;43.72;56.06;;
4048;Laerm;2038;51.728;6.674;2022-12-07T07:34:33;46.54;43.54;55.03;;
4048;Laerm;2038;51.728;6.674;2022-12-07T07:37:00;46.91;43.54;58.57;;
4048;Laerm;2038;51.728;6.674;2022-12-07T07:39:26;47.69;43.77;61.07;;
4048;Laerm;2038;51.728;6.674;2022-12-07T07:41:52;46.46;43.58;54.67;;
4048;Laerm;2038;51.728;6.674;2022-12-07T07:44:19;47.25;43.63;54.63;;
4048;Laerm;2038;51.728;6.674;2022-12-07T07:46:45;48.61;43.49;57.40;;
4048;Laerm;2038;51.728;6.674;2022-12-07T07:49:11;47.82;43.54;58.13;;
4048;Laerm;2038;51.728;6.674;2022-12-07T07:51:37;47.94;43.49;58.24;;
4048;Laerm;2038;51.728;6.674;2022-12-07T07:54:04;50.94;43.63;65.44;;
4048;Laerm;2038;51.728;6.674;2022-12-07T07:56:30;46.90;43.09;58.44;;
4048;Laerm;2038;51.728;6.674;2022-12-07T07:58:56;47.28;43.44;56.49;;
4048;Laerm;2038;51.728;6.674;2022-12-07T08:01:23;47.20;42.93;58.21;;
4048;Laerm;2038;51.728;6.674;2022-12-07T08:03:49;47.73;43.04;60.33;;
4048;Laerm;2038;51.728;6.674;2022-12-07T08:06:15;45.71;43.19;54.36;;
4048;Laerm;2038;51.728;6.674;2022-12-07T08:08:42;46.92;43.14;57.69;;
4048;Laerm;2038;51.728;6.674;2022-12-07T08:11:09;45.70;43.19;55.25;;
4048;Laerm;2038;51.728;6.674;2022-12-07T08:13:36;46.15;43.44;53.96;;
4048;Laerm;2038;51.728;6.674;2022-12-07T08:16:09;46.55;43.72;54.49;;
4048;Laerm;2038;51.728;6.674;2022-12-07T08:18:38;47.18;43.54;55.60;;
4048;Laerm;2038;51.728;6.674;2022-12-07T08:21:22;47.46;43.77;57.71;;
4048;Laerm;2038;51.728;6.674;2022-12-07T08:23:48;47.32;43.90;56.07;;
4048;Laerm;2038;51.728;6.674;2022-12-07T08:26:16;48.00;43.99;60.81;;
4048;Laerm;2038;51.728;6.674;2022-12-07T08:28:43;47.50;44.07;54.90;;
4048;Laerm;2038;51.728;6.674;2022-12-07T08:31:16;47.70;44.19;56.79;;
4048;Laerm;2038;51.728;6.674;2022-12-07T08:33:44;47.01;44.15;53.82;;
4048;Laerm;2038;51.728;6.674;2022-12-07T08:36:12;47.02;44.39;53.54;;
4048;Laerm;2038;51.728;6.674;2022-12-07T08:38:41;46.49;44.15;53.73;;
4048;Laerm;2038;51.728;6.674;2022-12-07T08:41:08;47.41;44.43;54.06;;
4048;Laerm;2038;51.728;6.674;2022-12-07T08:43:35;46.53;44.27;53.13;;
4048;Laerm;2038;51.728;6.674;2022-12-07T08:46:39;47.84;44.27;57.69;;
4048;Laerm;2038;51.728;6.674;2022-12-07T08:49:15;47.76;44.35;60.54;;
4048;Laerm;2038;51.728;6.674;2022-12-07T08:51:42;47.77;43.99;57.52;;
4048;Laerm;2038;51.728;6.674;2022-12-07T08:54:14;47.03;44.27;54.76;;
4048;Laerm;2038;51.728;6.674;2022-12-07T08:56:44;46.49;44.23;55.27;;
4048;Laerm;2038;51.728;6.674;2022-12-07T08:59:14;47.32;43.99;55.82;;
4048;Laerm;2038;51.728;6.674;2022-12-07T09:01:53;47.88;44.39;59.01;;
4048;Laerm;2038;51.728;6.674;2022-12-07T09:04:21;47.31;44.11;53.96;;
4048;Laerm;2038;51.728;6.674;2022-12-07T09:06:47;46.80;44.11;53.44;;
4048;Laerm;2038;51.728;6.674;2022-12-07T09:09:14;46.23;44.07;53.07;;
4048;Laerm;2038;51.728;6.674;2022-12-07T09:11:41;47.21;44.23;54.70;;
4048;Laerm;2038;51.728;6.674;2022-12-07T09:14:07;46.72;43.94;55.97;;
4048;Laerm;2038;51.728;6.674;2022-12-07T09:16:33;47.02;43.77;58.59;;
4048;Laerm;2038;51.728;6.674;2022-12-07T09:19:00;45.96;43.81;54.27;;
4048;Laerm;2038;51.728;6.674;2022-12-07T09:21:26;50.98;43.54;66.12;;
4048;Laerm;2038;51.728;6.674;2022-12-07T09:23:53;47.46;43.34;57.07;;
4048;Laerm;2038;51.728;6.674;2022-12-07T09:26:19;46.07;43.49;55.47;;
4048;Laerm;2038;51.728;6.674;2022-12-07T09:28:45;46.57;43.63;54.42;;
4048;Laerm;2038;51.728;6.674;2022-12-07T09:31:11;46.62;43.39;58.53;;
4048;Laerm;2038;51.728;6.674;2022-12-07T09:33:38;47.16;44.23;53.13;;
4048;Laerm;2038;51.728;6.674;2022-12-07T09:36:04;47.24;44.31;55.08;;
4048;Laerm;2038;51.728;6.674;2022-12-07T09:38:31;48.61;44.31;60.70;;
4048;Laerm;2038;51.728;6.674;2022-12-07T09:41:07;47.90;44.43;53.39;;
4048;Laerm;2038;51.728;6.674;2022-12-07T09:43:36;48.08;44.54;65.99;;
4048;Laerm;2038;51.728;6.674;2022-12-07T09:46:05;47.45;44.23;54.68;;
4048;Laerm;2038;51.728;6.674;2022-12-07T09:48:36;45.80;43.94;50.81;;
4048;Laerm;2038;51.728;6.674;2022-12-07T09:51:14;46.51;44.19;54.34;;
4048;Laerm;2038;51.728;6.674;2022-12-07T09:53:42;46.41;44.27;52.65;;
4048;Laerm;2038;51.728;6.674;2022-12-07T09:56:17;47.35;44.27;55.79;;
4048;Laerm;2038;51.728;6.674;2022-12-07T09:58:45;46.45;44.23;53.18;;
4048;Laerm;2038;51.728;6.674;2022-12-07T10:01:21;47.31;44.19;58.56;;
4048;Laerm;2038;51.728;6.674;2022-12-07T10:03:53;47.26;44.07;55.96;;
4048;Laerm;2038;51.728;6.674;2022-12-07T10:06:20;46.37;44.03;53.69;;
4048;Laerm;2038;51.728;6.674;2022-12-07T10:08:47;47.44;43.90;56.73;;
4048;Laerm;2038;51.728;6.674;2022-12-07T10:11:16;48.48;44.07;62.06;;
4048;Laerm;2038;51.728;6.674;2022-12-07T10:13:52;46.77;43.94;53.58;;
4048;Laerm;2038;51.728;6.674;2022-12-07T10:16:38;46.79;43.72;55.37;;
4048;Laerm;2038;51.728;6.674;2022-12-07T10:19:25;49.02;43.94;63.09;;
4048;Laerm;2038;51.728;6.674;2022-12-07T10:24:36;50.17;43.29;66.09;;
4048;Laerm;2038;51.728;6.674;2022-12-07T10:27:19;46.24;43.42;58.64;;
4048;Laerm;2038;51.728;6.674;2022-12-07T10:29:52;47.09;43.81;57.64;;
4048;Laerm;2038;51.728;6.674;2022-12-07T10:34:45;47.13;43.81;56.35;;
4048;Laerm;2038;51.728;6.674;2022-12-07T10:39:55;46.97;43.34;57.94;;
4048;Laerm;2038;51.728;6.674;2022-12-07T10:42:29;48.48;43.58;63.18;;
4048;Laerm;2038;51.728;6.674;2022-12-07T10:45:10;46.29;42.53;57.69;;
4048;Laerm;2038;51.728;6.674;2022-12-07T10:50:55;46.80;42.76;58.25;;
4048;Laerm;2038;51.728;6.674;2022-12-07T10:54:09;45.95;43.34;55.70;;
4048;Laerm;2038;51.728;6.674;2022-12-07T11:02:25;46.07;42.98;54.34;;
4048;Laerm;2038;51.728;6.674;2022-12-07T11:05:19;47.64;43.46;57.07;;
4048;Laerm;2038;51.728;6.674;2022-12-07T11:10:59;46.74;42.41;56.60;;
4048;Laerm;2038;51.728;6.674;2022-12-07T11:13:44;46.40;41.46;55.76;;
4048;Laerm;2038;51.728;6.674;2022-12-07T11:16:27;44.61;41.96;52.90;;
4048;Laerm;2038;51.728;6.674;2022-12-07T11:24:50;45.68;41.88;55.45;;
4048;Laerm;2038;51.728;6.674;2022-12-07T11:27:32;46.62;41.61;58.46;;
4048;Laerm;2038;51.728;6.674;2022-12-07T11:30:22;44.12;41.22;54.25;;
4048;Laerm;2038;51.728;6.674;2022-12-07T11:33:27;45.14;41.82;54.28;;
4048;Laerm;2038;51.728;6.674;2022-12-07T11:39:02;49.25;42.35;61.71;;
4048;Laerm;2038;51.728;6.674;2022-12-07T11:41:35;46.44;41.89;59.14;;
4048;Laerm;2038;51.728;6.674;2022-12-07T11:44:33;44.88;41.38;52.97;;
4048;Laerm;2038;51.728;6.674;2022-12-07T11:47:10;49.95;40.89;64.93;;
4048;Laerm;2038;51.728;6.674;2022-12-07T11:53:17;47.89;40.23;62.61;;
4048;Laerm;2038;51.728;6.674;2022-12-07T11:55:52;44.52;40.23;54.87;;
4048;Laerm;2038;51.728;6.674;2022-12-07T11:58:57;44.78;41.38;57.24;;
4048;Laerm;2038;51.728;6.674;2022-12-07T12:02:11;46.01;40.80;56.08;;
4048;Laerm;2038;51.728;6.674;2022-12-07T12:05:12;46.54;41.53;62.84;;
4048;Laerm;2038;51.728;6.674;2022-12-07T12:07:42;46.34;41.06;56.63;;
4048;Laerm;2038;51.728;6.674;2022-12-07T12:10:45;44.16;40.03;52.81;;
4048;Laerm;2038;51.728;6.674;2022-12-07T12:20:23;47.43;40.03;62.81;;
4048;Laerm;2038;51.728;6.674;2022-12-07T12:23:00;44.57;40.89;54.33;;
4048;Laerm;2038;51.728;6.674;2022-12-07T12:25:40;47.03;41.06;58.35;;
4048;Laerm;2038;51.728;6.674;2022-12-07T12:28:40;45.03;40.53;54.34;;
4048;Laerm;2038;51.728;6.674;2022-12-07T12:33:53;44.19;41.06;51.91;;
4048;Laerm;2038;51.728;6.674;2022-12-07T12:47:00;46.79;41.06;58.30;;
4048;Laerm;2038;51.728;6.674;2022-12-07T12:49:41;44.46;40.71;53.54;;
4048;Laerm;2038;51.728;6.674;2022-12-07T12:57:37;46.92;41.68;57.34;;
4048;Laerm;2038;51.728;6.674;2022-12-07T13:02:56;45.05;41.89;53.42;;
4048;Laerm;2038;51.728;6.674;2022-12-07T13:05:30;48.00;41.89;64.53;;
4048;Laerm;2038;51.728;6.674;2022-12-07T13:08:18;45.01;41.82;55.55;;
4048;Laerm;2038;51.728;6.674;2022-12-07T13:10:47;44.49;41.68;55.21;;
4048;Laerm;2038;51.728;6.674;2022-12-07T13:15:47;45.57;41.96;55.50;;
4048;Laerm;2038;51.728;6.674;2022-12-07T13:26:39;49.24;40.62;64.49;;
4048;Laerm;2038;51.728;6.674;2022-12-07T13:29:15;46.97;41.75;55.38;;
4048;Laerm;2038;51.728;6.674;2022-12-07T13:31:55;45.29;40.98;57.03;;
4048;Laerm;2038;51.728;6.674;2022-12-07T13:34:39;48.70;41.68;60.90;;
4048;Laerm;2038;51.728;6.674;2022-12-07T13:42:32;48.18;42.35;62.18;;
4048;Laerm;2038;51.728;6.674;2022-12-07T13:45:14;44.85;41.38;53.34;;
4048;Laerm;2038;51.728;6.674;2022-12-07T13:47:52;46.58;41.46;57.63;;
4048;Laerm;2038;51.728;6.674;2022-12-07T13:50:31;45.82;41.68;53.73;;
4048;Laerm;2038;51.728;6.674;2022-12-07T13:53:00;46.09;41.53;54.57;;
4048;Laerm;2038;51.728;6.674;2022-12-07T13:55:29;46.40;41.30;54.25;;
4048;Laerm;2038;51.728;6.674;2022-12-07T13:57:56;51.94;41.96;66.01;;
4048;Laerm;2038;51.728;6.674;2022-12-07T14:00:26;47.61;42.59;58.47;;
4048;Laerm;2038;51.728;6.674;2022-12-07T14:03:22;46.68;42.16;54.24;;
4048;Laerm;2038;51.728;6.674;2022-12-07T14:06:16;47.71;41.89;57.57;;
4048;Laerm;2038;51.728;6.674;2022-12-07T14:08:43;47.99;41.96;61.81;;
4048;Laerm;2038;51.728;6.674;2022-12-07T14:11:20;48.47;41.75;61.83;;
4048;Laerm;2038;51.728;6.674;2022-12-07T14:14:01;48.40;41.81;59.31;;
4048;Laerm;2038;51.728;6.674;2022-12-07T14:16:35;50.14;41.55;64.85;;
4048;Laerm;2038;51.728;6.674;2022-12-07T14:22:36;49.40;41.53;62.36;;
4048;Laerm;2038;51.728;6.674;2022-12-07T14:25:26;46.71;41.96;56.16;;
4048;Laerm;2038;51.728;6.674;2022-12-07T14:27:59;47.87;41.75;57.56;;
4048;Laerm;2038;51.728;6.674;2022-12-07T14:30:32;47.37;41.22;59.97;;
4048;Laerm;2038;51.728;6.674;2022-12-07T14:33:03;46.46;41.06;58.43;;
4048;Laerm;2038;51.728;6.674;2022-12-07T14:35:32;46.57;41.38;55.85;;
4048;Laerm;2038;51.728;6.674;2022-12-07T14:37:58;47.06;41.06;58.06;;
4048;Laerm;2038;51.728;6.674;2022-12-07T14:40:27;52.45;41.68;67.93;;
4048;Laerm;2038;51.728;6.674;2022-12-07T14:43:05;48.53;41.46;74.99;;
4048;Laerm;2038;51.728;6.674;2022-12-07T14:45:32;49.43;41.38;63.23;;
4048;Laerm;2038;51.728;6.674;2022-12-07T14:47:59;45.20;41.30;58.31;;
4048;Laerm;2038;51.728;6.674;2022-12-07T14:50:25;50.06;41.61;61.27;;
4048;Laerm;2038;51.728;6.674;2022-12-07T14:53:13;45.48;40.98;55.51;;
4048;Laerm;2038;51.728;6.674;2022-12-07T14:55:40;46.45;41.61;57.22;;
4048;Laerm;2038;51.728;6.674;2022-12-07T14:58:14;51.53;41.46;66.20;;
4048;Laerm;2038;51.728;6.674;2022-12-07T15:00:40;49.41;41.61;61.62;;
4048;Laerm;2038;51.728;6.674;2022-12-07T15:03:07;46.25;40.98;54.92;;
4048;Laerm;2038;51.728;6.674;2022-12-07T15:05:34;46.41;41.46;55.68;;
4048;Laerm;2038;51.728;6.674;2022-12-07T15:08:01;47.28;41.38;57.14;;
4048;Laerm;2038;51.728;6.674;2022-12-07T15:10:31;50.10;41.82;63.03;;
4048;Laerm;2038;51.728;6.674;2022-12-07T15:13:01;46.12;41.46;57.94;;
4048;Laerm;2038;51.728;6.674;2022-12-07T15:15:48;47.90;41.96;58.55;;
4048;Laerm;2038;51.728;6.674;2022-12-07T15:18:15;45.41;41.14;54.97;;
4048;Laerm;2038;51.728;6.674;2022-12-07T15:20:42;47.56;41.22;57.78;;
4048;Laerm;2038;51.728;6.674;2022-12-07T15:23:09;46.20;41.26;57.79;;
4048;Laerm;2038;51.728;6.674;2022-12-07T15:25:36;46.78;41.61;56.10;;
4048;Laerm;2038;51.728;6.674;2022-12-07T15:28:02;48.72;42.09;61.97;;
4048;Laerm;2038;51.728;6.674;2022-12-07T15:30:29;46.65;41.53;56.27;;
4048;Laerm;2038;51.728;6.674;2022-12-07T15:32:55;45.86;41.68;56.55;;
4048;Laerm;2038;51.728;6.674;2022-12-07T15:35:21;46.79;42.03;56.52;;
4048;Laerm;2038;51.728;6.674;2022-12-07T15:37:47;49.34;42.03;64.92;;
4048;Laerm;2038;51.728;6.674;2022-12-07T15:40:14;48.26;42.35;55.84;;
4048;Laerm;2038;51.728;6.674;2022-12-07T15:42:40;46.46;42.59;58.07;;
4048;Laerm;2038;51.728;6.674;2022-12-07T15:45:08;46.84;41.96;57.39;;
4048;Laerm;2038;51.728;6.674;2022-12-07T15:47:42;46.66;42.29;57.94;;
4048;Laerm;2038;51.728;6.674;2022-12-07T15:50:13;48.54;42.22;61.94;;
4048;Laerm;2038;51.728;6.674;2022-12-07T15:52:40;46.14;42.47;55.10;;
4048;Laerm;2038;51.728;6.674;2022-12-07T15:55:08;46.34;41.19;54.23;;
4048;Laerm;2038;51.728;6.674;2022-12-07T15:57:37;45.89;42.29;55.26;;
4048;Laerm;2038;51.728;6.674;2022-12-07T16:00:06;46.73;42.09;55.82;;
4048;Laerm;2038;51.728;6.674;2022-12-07T16:02:32;47.05;42.47;57.97;;
4048;Laerm;2038;51.728;6.674;2022-12-07T16:04:58;48.28;42.88;61.58;;
4048;Laerm;2038;51.728;6.674;2022-12-07T16:07:25;49.10;42.88;56.99;;
4048;Laerm;2038;51.728;6.674;2022-12-07T16:09:51;49.17;42.03;58.43;;
4048;Laerm;2038;51.728;6.674;2022-12-07T16:12:18;47.21;41.75;61.27;;